Terminal Aerodrome Forecast
Issued by NWS

Home | Current Version | Previous Version | Graphics & Text | Print | Product List | Glossary On
Versions: 1 2 3 4 5 6 7 8 9 10 11 12
000
FTUS45 KGGW 261133
TAFGDV
TAF
KGDV 261133Z 2612/2712 VRB03KT P6SM BKN120
     FM261500 21005KT P6SM BKN080
     FM262200 27007KT P6SM VCSH BKN080
     FM270600 29004KT P6SM SCT120=

USA.gov is the U.S. government's official web portal to all federal, state and local government web resources and services.